sensor_id;sensor_type;location;lat;lon;timestamp;P1;durP1;ratioP1;P2;durP2;ratioP2
12691;SDS011;6410;57.636;18.304;2022-08-01T00:00:08;2.00;;;1.90;;
12691;SDS011;6410;57.636;18.304;2022-08-01T00:02:37;1.92;;;1.83;;
12691;SDS011;6410;57.636;18.304;2022-08-01T00:05:07;2.20;;;2.10;;
12691;SDS011;6410;57.636;18.304;2022-08-01T00:07:37;2.20;;;2.00;;
12691;SDS011;6410;57.636;18.304;2022-08-01T00:10:08;2.30;;;2.10;;
12691;SDS011;6410;57.636;18.304;2022-08-01T00:12:40;2.05;;;1.85;;
12691;SDS011;6410;57.636;18.304;2022-08-01T00:15:10;2.15;;;1.95;;
12691;SDS011;6410;57.636;18.304;2022-08-01T00:17:40;2.10;;;2.00;;
12691;SDS011;6410;57.636;18.304;2022-08-01T00:20:10;2.42;;;2.22;;
12691;SDS011;6410;57.636;18.304;2022-08-01T00:22:40;1.95;;;1.85;;
12691;SDS011;6410;57.636;18.304;2022-08-01T00:25:10;2.25;;;2.15;;
12691;SDS011;6410;57.636;18.304;2022-08-01T00:27:38;2.45;;;2.28;;
12691;SDS011;6410;57.636;18.304;2022-08-01T00:30:07;2.17;;;2.08;;
12691;SDS011;6410;57.636;18.304;2022-08-01T00:32:40;2.13;;;2.00;;
12691;SDS011;6410;57.636;18.304;2022-08-01T00:35:08;2.55;;;2.22;;
12691;SDS011;6410;57.636;18.304;2022-08-01T00:37:37;2.65;;;1.92;;
12691;SDS011;6410;57.636;18.304;2022-08-01T00:40:06;2.47;;;2.05;;
12691;SDS011;6410;57.636;18.304;2022-08-01T00:42:36;1.92;;;1.83;;
12691;SDS011;6410;57.636;18.304;2022-08-01T00:45:09;1.67;;;1.58;;
12691;SDS011;6410;57.636;18.304;2022-08-01T00:47:37;1.88;;;1.77;;
12691;SDS011;6410;57.636;18.304;2022-08-01T00:50:06;1.65;;;1.65;;
12691;SDS011;6410;57.636;18.304;2022-08-01T00:52:36;1.80;;;1.70;;
12691;SDS011;6410;57.636;18.304;2022-08-01T00:55:06;2.17;;;2.08;;
12691;SDS011;6410;57.636;18.304;2022-08-01T00:57:41;2.05;;;1.95;;
12691;SDS011;6410;57.636;18.304;2022-08-01T01:00:30;1.90;;;1.80;;
12691;SDS011;6410;57.636;18.304;2022-08-01T01:03:18;3.22;;;1.90;;
12691;SDS011;6410;57.636;18.304;2022-08-01T01:05:56;1.92;;;1.88;;
12691;SDS011;6410;57.636;18.304;2022-08-01T01:08:35;2.08;;;1.98;;
12691;SDS011;6410;57.636;18.304;2022-08-01T01:11:12;1.77;;;1.73;;
12691;SDS011;6410;57.636;18.304;2022-08-01T01:13:48;2.95;;;2.03;;
12691;SDS011;6410;57.636;18.304;2022-08-01T01:16:20;2.70;;;1.90;;
12691;SDS011;6410;57.636;18.304;2022-08-01T01:18:51;1.88;;;1.77;;
12691;SDS011;6410;57.636;18.304;2022-08-01T01:24:31;2.15;;;1.95;;
12691;SDS011;6410;57.636;18.304;2022-08-01T01:27:06;2.00;;;1.90;;
12691;SDS011;6410;57.636;18.304;2022-08-01T01:29:48;2.20;;;2.10;;
12691;SDS011;6410;57.636;18.304;2022-08-01T01:32:28;2.05;;;1.95;;
12691;SDS011;6410;57.636;18.304;2022-08-01T01:35:02;2.03;;;1.92;;
12691;SDS011;6410;57.636;18.304;2022-08-01T01:37:33;2.63;;;2.33;;
12691;SDS011;6410;57.636;18.304;2022-08-01T01:40:03;2.05;;;1.95;;
12691;SDS011;6410;57.636;18.304;2022-08-01T01:42:33;1.90;;;1.80;;
12691;SDS011;6410;57.636;18.304;2022-08-01T01:45:05;2.20;;;2.10;;
12691;SDS011;6410;57.636;18.304;2022-08-01T01:47:35;1.90;;;1.80;;
12691;SDS011;6410;57.636;18.304;2022-08-01T01:50:05;2.00;;;1.90;;
12691;SDS011;6410;57.636;18.304;2022-08-01T01:52:39;1.67;;;1.65;;
12691;SDS011;6410;57.636;18.304;2022-08-01T01:55:09;2.20;;;2.10;;
12691;SDS011;6410;57.636;18.304;2022-08-01T01:57:40;2.05;;;1.85;;
12691;SDS011;6410;57.636;18.304;2022-08-01T02:00:12;2.00;;;1.90;;
12691;SDS011;6410;57.636;18.304;2022-08-01T02:02:42;2.15;;;2.05;;
12691;SDS011;6410;57.636;18.304;2022-08-01T02:05:12;2.65;;;1.80;;
12691;SDS011;6410;57.636;18.304;2022-08-01T02:07:41;2.20;;;2.10;;
12691;SDS011;6410;57.636;18.304;2022-08-01T02:10:14;2.20;;;2.10;;
12691;SDS011;6410;57.636;18.304;2022-08-01T02:12:53;2.30;;;2.20;;
12691;SDS011;6410;57.636;18.304;2022-08-01T02:15:24;2.30;;;2.20;;
12691;SDS011;6410;57.636;18.304;2022-08-01T02:17:54;2.20;;;2.10;;
12691;SDS011;6410;57.636;18.304;2022-08-01T02:20:25;2.45;;;2.25;;
12691;SDS011;6410;57.636;18.304;2022-08-01T02:22:58;2.17;;;2.08;;
12691;SDS011;6410;57.636;18.304;2022-08-01T02:25:36;2.40;;;2.20;;
12691;SDS011;6410;57.636;18.304;2022-08-01T02:28:30;2.33;;;2.10;;
12691;SDS011;6410;57.636;18.304;2022-08-01T02:31:06;2.25;;;2.15;;
12691;SDS011;6410;57.636;18.304;2022-08-01T02:33:41;2.08;;;1.95;;
12691;SDS011;6410;57.636;18.304;2022-08-01T02:36:13;2.45;;;1.88;;
12691;SDS011;6410;57.636;18.304;2022-08-01T02:38:59;2.20;;;2.10;;
12691;SDS011;6410;57.636;18.304;2022-08-01T02:41:30;2.28;;;2.08;;
12691;SDS011;6410;57.636;18.304;2022-08-01T02:44:04;1.63;;;1.63;;
12691;SDS011;6410;57.636;18.304;2022-08-01T02:46:37;3.45;;;2.60;;
12691;SDS011;6410;57.636;18.304;2022-08-01T02:49:09;5.53;;;2.47;;
12691;SDS011;6410;57.636;18.304;2022-08-01T02:51:40;4.20;;;2.22;;
12691;SDS011;6410;57.636;18.304;2022-08-01T02:54:10;2.17;;;1.98;;
12691;SDS011;6410;57.636;18.304;2022-08-01T02:56:39;2.00;;;1.90;;
12691;SDS011;6410;57.636;18.304;2022-08-01T02:59:10;2.03;;;1.92;;
12691;SDS011;6410;57.636;18.304;2022-08-01T03:01:49;5.15;;;2.42;;
12691;SDS011;6410;57.636;18.304;2022-08-01T03:04:21;3.75;;;2.20;;
12691;SDS011;6410;57.636;18.304;2022-08-01T03:06:50;2.28;;;2.17;;
12691;SDS011;6410;57.636;18.304;2022-08-01T03:09:21;2.08;;;1.98;;
12691;SDS011;6410;57.636;18.304;2022-08-01T03:11:50;3.00;;;2.10;;
12691;SDS011;6410;57.636;18.304;2022-08-01T03:14:22;2.42;;;2.22;;
12691;SDS011;6410;57.636;18.304;2022-08-01T03:16:54;2.20;;;2.10;;
12691;SDS011;6410;57.636;18.304;2022-08-01T03:19:24;3.60;;;3.30;;
12691;SDS011;6410;57.636;18.304;2022-08-01T03:21:54;4.57;;;4.28;;
12691;SDS011;6410;57.636;18.304;2022-08-01T03:24:25;3.65;;;3.35;;
12691;SDS011;6410;57.636;18.304;2022-08-01T03:26:54;4.00;;;3.40;;
12691;SDS011;6410;57.636;18.304;2022-08-01T03:29:25;5.60;;;5.25;;
12691;SDS011;6410;57.636;18.304;2022-08-01T03:31:58;5.43;;;4.78;;
12691;SDS011;6410;57.636;18.304;2022-08-01T03:34:27;4.32;;;4.03;;
12691;SDS011;6410;57.636;18.304;2022-08-01T03:37:01;3.83;;;3.60;;
12691;SDS011;6410;57.636;18.304;2022-08-01T03:39:34;3.40;;;3.20;;
12691;SDS011;6410;57.636;18.304;2022-08-01T03:42:09;2.65;;;2.47;;
12691;SDS011;6410;57.636;18.304;2022-08-01T03:44:42;2.20;;;2.10;;
12691;SDS011;6410;57.636;18.304;2022-08-01T03:47:21;2.42;;;2.33;;
12691;SDS011;6410;57.636;18.304;2022-08-01T03:49:53;2.33;;;2.22;;
12691;SDS011;6410;57.636;18.304;2022-08-01T03:52:24;3.00;;;2.35;;
12691;SDS011;6410;57.636;18.304;2022-08-01T03:54:54;2.33;;;2.13;;
12691;SDS011;6410;57.636;18.304;2022-08-01T03:57:26;2.05;;;1.95;;
12691;SDS011;6410;57.636;18.304;2022-08-01T04:00:03;2.20;;;1.95;;
12691;SDS011;6410;57.636;18.304;2022-08-01T04:02:36;2.20;;;2.10;;
12691;SDS011;6410;57.636;18.304;2022-08-01T04:05:06;2.10;;;2.03;;
12691;SDS011;6410;57.636;18.304;2022-08-01T04:07:35;2.30;;;2.10;;
12691;SDS011;6410;57.636;18.304;2022-08-01T04:10:05;2.35;;;2.25;;
12691;SDS011;6410;57.636;18.304;2022-08-01T04:12:34;2.55;;;2.35;;
12691;SDS011;6410;57.636;18.304;2022-08-01T04:15:03;2.42;;;2.30;;
12691;SDS011;6410;57.636;18.304;2022-08-01T04:17:32;2.60;;;2.50;;
12691;SDS011;6410;57.636;18.304;2022-08-01T04:20:02;3.00;;;2.50;;
12691;SDS011;6410;57.636;18.304;2022-08-01T04:22:31;2.55;;;2.35;;
12691;SDS011;6410;57.636;18.304;2022-08-01T04:25:03;2.47;;;2.38;;
12691;SDS011;6410;57.636;18.304;2022-08-01T04:27:37;2.25;;;2.15;;
12691;SDS011;6410;57.636;18.304;2022-08-01T04:30:17;2.97;;;2.42;;
12691;SDS011;6410;57.636;18.304;2022-08-01T04:32:48;2.63;;;2.20;;
12691;SDS011;6410;57.636;18.304;2022-08-01T04:35:19;3.38;;;2.50;;
12691;SDS011;6410;57.636;18.304;2022-08-01T04:38:08;2.80;;;2.60;;
12691;SDS011;6410;57.636;18.304;2022-08-01T04:40:39;3.75;;;2.90;;
12691;SDS011;6410;57.636;18.304;2022-08-01T04:43:08;4.10;;;2.63;;
12691;SDS011;6410;57.636;18.304;2022-08-01T04:45:40;3.35;;;2.75;;
12691;SDS011;6410;57.636;18.304;2022-08-01T04:48:10;4.88;;;3.08;;
12691;SDS011;6410;57.636;18.304;2022-08-01T04:50:42;3.10;;;2.80;;
12691;SDS011;6410;57.636;18.304;2022-08-01T04:53:12;2.67;;;2.58;;
12691;SDS011;6410;57.636;18.304;2022-08-01T04:55:43;2.90;;;2.80;;
12691;SDS011;6410;57.636;18.304;2022-08-01T04:58:13;2.65;;;2.45;;
12691;SDS011;6410;57.636;18.304;2022-08-01T05:00:44;2.88;;;2.60;;
12691;SDS011;6410;57.636;18.304;2022-08-01T05:03:13;2.65;;;2.55;;
12691;SDS011;6410;57.636;18.304;2022-08-01T05:05:42;2.53;;;2.42;;
12691;SDS011;6410;57.636;18.304;2022-08-01T05:08:11;2.53;;;2.42;;
12691;SDS011;6410;57.636;18.304;2022-08-01T05:10:41;2.80;;;2.70;;
12691;SDS011;6410;57.636;18.304;2022-08-01T05:13:09;2.83;;;2.63;;
12691;SDS011;6410;57.636;18.304;2022-08-01T05:15:37;2.70;;;2.60;;
12691;SDS011;6410;57.636;18.304;2022-08-01T05:18:06;3.15;;;3.05;;
12691;SDS011;6410;57.636;18.304;2022-08-01T05:20:34;3.30;;;3.10;;
12691;SDS011;6410;57.636;18.304;2022-08-01T05:23:04;3.03;;;2.92;;
12691;SDS011;6410;57.636;18.304;2022-08-01T05:25:42;2.80;;;2.70;;
12691;SDS011;6410;57.636;18.304;2022-08-01T05:28:23;3.47;;;3.35;;
12691;SDS011;6410;57.636;18.304;2022-08-01T05:30:51;3.20;;;3.10;;
12691;SDS011;6410;57.636;18.304;2022-08-01T05:33:21;3.50;;;3.35;;
12691;SDS011;6410;57.636;18.304;2022-08-01T05:35:49;3.13;;;2.92;;
12691;SDS011;6410;57.636;18.304;2022-08-01T05:38:22;2.97;;;2.88;;
12691;SDS011;6410;57.636;18.304;2022-08-01T05:40:50;3.20;;;3.10;;
12691;SDS011;6410;57.636;18.304;2022-08-01T05:43:18;2.95;;;2.85;;
12691;SDS011;6410;57.636;18.304;2022-08-01T05:45:53;3.25;;;3.10;;
12691;SDS011;6410;57.636;18.304;2022-08-01T05:48:22;2.92;;;2.72;;
12691;SDS011;6410;57.636;18.304;2022-08-01T05:50:50;3.22;;;3.03;;
12691;SDS011;6410;57.636;18.304;2022-08-01T05:53:25;2.78;;;2.67;;
12691;SDS011;6410;57.636;18.304;2022-08-01T05:55:54;2.88;;;2.78;;
12691;SDS011;6410;57.636;18.304;2022-08-01T05:58:22;3.00;;;2.83;;
12691;SDS011;6410;57.636;18.304;2022-08-01T06:00:50;2.80;;;2.70;;
12691;SDS011;6410;57.636;18.304;2022-08-01T06:03:18;2.90;;;2.72;;
12691;SDS011;6410;57.636;18.304;2022-08-01T06:05:47;3.30;;;3.20;;
12691;SDS011;6410;57.636;18.304;2022-08-01T06:08:15;3.08;;;2.97;;
12691;SDS011;6410;57.636;18.304;2022-08-01T06:10:45;3.55;;;3.35;;
12691;SDS011;6410;57.636;18.304;2022-08-01T06:13:15;3.70;;;3.60;;
12691;SDS011;6410;57.636;18.304;2022-08-01T06:15:45;3.58;;;3.45;;
12691;SDS011;6410;57.636;18.304;2022-08-01T06:18:14;3.40;;;3.30;;
12691;SDS011;6410;57.636;18.304;2022-08-01T06:20:42;4.25;;;3.95;;
12691;SDS011;6410;57.636;18.304;2022-08-01T06:23:11;3.40;;;3.30;;
12691;SDS011;6410;57.636;18.304;2022-08-01T06:25:59;3.65;;;3.55;;
12691;SDS011;6410;57.636;18.304;2022-08-01T06:28:27;4.10;;;3.90;;
12691;SDS011;6410;57.636;18.304;2022-08-01T06:30:56;3.60;;;3.50;;
12691;SDS011;6410;57.636;18.304;2022-08-01T06:33:26;3.97;;;3.80;;
12691;SDS011;6410;57.636;18.304;2022-08-01T06:35:54;4.28;;;4.07;;
12691;SDS011;6410;57.636;18.304;2022-08-01T06:38:23;4.50;;;4.15;;
12691;SDS011;6410;57.636;18.304;2022-08-01T06:40:52;3.75;;;3.65;;
12691;SDS011;6410;57.636;18.304;2022-08-01T06:43:21;4.28;;;3.70;;
12691;SDS011;6410;57.636;18.304;2022-08-01T06:45:50;3.70;;;3.60;;
12691;SDS011;6410;57.636;18.304;2022-08-01T06:48:18;4.07;;;3.97;;
12691;SDS011;6410;57.636;18.304;2022-08-01T06:50:46;3.90;;;3.70;;
12691;SDS011;6410;57.636;18.304;2022-08-01T06:53:14;4.35;;;4.15;;
12691;SDS011;6410;57.636;18.304;2022-08-01T06:55:43;4.00;;;3.80;;
12691;SDS011;6410;57.636;18.304;2022-08-01T06:58:11;4.47;;;4.30;;
12691;SDS011;6410;57.636;18.304;2022-08-01T07:00:41;4.03;;;3.92;;
12691;SDS011;6410;57.636;18.304;2022-08-01T07:03:09;4.20;;;4.10;;
12691;SDS011;6410;57.636;18.304;2022-08-01T07:05:37;4.05;;;3.85;;
12691;SDS011;6410;57.636;18.304;2022-08-01T07:08:06;4.00;;;3.90;;
12691;SDS011;6410;57.636;18.304;2022-08-01T07:10:34;4.03;;;3.88;;
12691;SDS011;6410;57.636;18.304;2022-08-01T07:13:02;4.50;;;4.30;;
12691;SDS011;6410;57.636;18.304;2022-08-01T07:15:30;4.10;;;3.90;;
12691;SDS011;6410;57.636;18.304;2022-08-01T07:18:00;4.65;;;4.45;;
12691;SDS011;6410;57.636;18.304;2022-08-01T07:20:30;5.65;;;4.13;;
12691;SDS011;6410;57.636;18.304;2022-08-01T07:23:06;4.88;;;4.40;;
12691;SDS011;6410;57.636;18.304;2022-08-01T07:25:38;4.47;;;4.28;;
12691;SDS011;6410;57.636;18.304;2022-08-01T07:28:15;4.00;;;3.90;;
12691;SDS011;6410;57.636;18.304;2022-08-01T07:30:44;4.13;;;3.83;;
12691;SDS011;6410;57.636;18.304;2022-08-01T07:33:13;3.72;;;3.60;;
12691;SDS011;6410;57.636;18.304;2022-08-01T07:35:42;4.15;;;4.00;;
12691;SDS011;6410;57.636;18.304;2022-08-01T07:38:10;4.10;;;3.90;;
12691;SDS011;6410;57.636;18.304;2022-08-01T07:40:39;4.97;;;4.68;;
12691;SDS011;6410;57.636;18.304;2022-08-01T07:43:07;4.30;;;4.10;;
12691;SDS011;6410;57.636;18.304;2022-08-01T07:45:35;4.53;;;4.32;;
12691;SDS011;6410;57.636;18.304;2022-08-01T07:48:11;4.43;;;4.22;;
12691;SDS011;6410;57.636;18.304;2022-08-01T07:50:41;4.53;;;4.32;;
12691;SDS011;6410;57.636;18.304;2022-08-01T07:53:09;3.90;;;3.80;;
12691;SDS011;6410;57.636;18.304;2022-08-01T07:55:38;4.10;;;3.90;;
12691;SDS011;6410;57.636;18.304;2022-08-01T07:58:06;4.10;;;4.00;;
12691;SDS011;6410;57.636;18.304;2022-08-01T08:00:34;4.38;;;4.10;;
12691;SDS011;6410;57.636;18.304;2022-08-01T08:03:03;4.32;;;4.13;;
12691;SDS011;6410;57.636;18.304;2022-08-01T08:05:32;5.35;;;4.38;;
12691;SDS011;6410;57.636;18.304;2022-08-01T08:08:21;4.35;;;4.18;;
12691;SDS011;6410;57.636;18.304;2022-08-01T08:10:50;4.22;;;4.03;;
12691;SDS011;6410;57.636;18.304;2022-08-01T08:13:18;4.10;;;3.90;;
12691;SDS011;6410;57.636;18.304;2022-08-01T08:15:47;4.32;;;4.13;;
12691;SDS011;6410;57.636;18.304;2022-08-01T08:18:15;4.45;;;4.25;;
12691;SDS011;6410;57.636;18.304;2022-08-01T08:20:45;4.75;;;4.55;;
12691;SDS011;6410;57.636;18.304;2022-08-01T08:23:15;4.57;;;4.20;;
12691;SDS011;6410;57.636;18.304;2022-08-01T08:26:08;4.30;;;4.00;;
12691;SDS011;6410;57.636;18.304;2022-08-01T08:28:37;4.00;;;3.80;;
12691;SDS011;6410;57.636;18.304;2022-08-01T08:31:06;3.80;;;3.70;;
12691;SDS011;6410;57.636;18.304;2022-08-01T08:33:54;5.13;;;4.72;;
12691;SDS011;6410;57.636;18.304;2022-08-01T08:36:24;5.03;;;4.72;;
12691;SDS011;6410;57.636;18.304;2022-08-01T08:38:57;4.60;;;4.40;;
12691;SDS011;6410;57.636;18.304;2022-08-01T08:41:31;4.80;;;4.60;;
12691;SDS011;6410;57.636;18.304;2022-08-01T08:44:03;4.85;;;4.63;;
12691;SDS011;6410;57.636;18.304;2022-08-01T08:46:37;5.45;;;5.25;;
12691;SDS011;6410;57.636;18.304;2022-08-01T08:49:08;5.93;;;5.65;;
12691;SDS011;6410;57.636;18.304;2022-08-01T08:51:39;6.03;;;5.72;;
12691;SDS011;6410;57.636;18.304;2022-08-01T08:54:10;5.65;;;5.45;;
12691;SDS011;6410;57.636;18.304;2022-08-01T08:56:40;5.90;;;5.63;;
12691;SDS011;6410;57.636;18.304;2022-08-01T08:59:11;6.15;;;5.93;;
12691;SDS011;6410;57.636;18.304;2022-08-01T09:01:41;6.50;;;6.20;;
12691;SDS011;6410;57.636;18.304;2022-08-01T09:04:09;6.20;;;6.00;;
12691;SDS011;6410;57.636;18.304;2022-08-01T09:06:39;6.50;;;6.20;;
12691;SDS011;6410;57.636;18.304;2022-08-01T09:09:08;7.25;;;6.85;;
12691;SDS011;6410;57.636;18.304;2022-08-01T09:11:37;7.18;;;6.68;;
12691;SDS011;6410;57.636;18.304;2022-08-01T09:14:07;6.80;;;6.60;;
12691;SDS011;6410;57.636;18.304;2022-08-01T09:16:37;6.88;;;6.63;;
12691;SDS011;6410;57.636;18.304;2022-08-01T09:19:15;7.05;;;6.75;;
12691;SDS011;6410;57.636;18.304;2022-08-01T09:22:08;6.50;;;6.30;;
12691;SDS011;6410;57.636;18.304;2022-08-01T09:24:37;7.15;;;6.65;;
12691;SDS011;6410;57.636;18.304;2022-08-01T09:27:15;7.22;;;6.93;;
12691;SDS011;6410;57.636;18.304;2022-08-01T09:29:49;7.55;;;7.25;;
12691;SDS011;6410;57.636;18.304;2022-08-01T09:32:27;6.93;;;6.72;;
12691;SDS011;6410;57.636;18.304;2022-08-01T09:40:49;7.80;;;7.40;;
12691;SDS011;6410;57.636;18.304;2022-08-01T09:43:24;7.38;;;7.07;;
12691;SDS011;6410;57.636;18.304;2022-08-01T09:45:56;7.35;;;6.95;;
12691;SDS011;6410;57.636;18.304;2022-08-01T09:48:25;7.70;;;7.40;;
12691;SDS011;6410;57.636;18.304;2022-08-01T09:50:56;7.60;;;7.30;;
12691;SDS011;6410;57.636;18.304;2022-08-01T09:53:42;7.40;;;7.10;;
12691;SDS011;6410;57.636;18.304;2022-08-01T09:56:18;7.03;;;6.72;;
12691;SDS011;6410;57.636;18.304;2022-08-01T09:58:51;6.95;;;6.75;;
12691;SDS011;6410;57.636;18.304;2022-08-01T10:01:26;7.00;;;6.70;;
12691;SDS011;6410;57.636;18.304;2022-08-01T10:04:09;6.10;;;5.90;;
12691;SDS011;6410;57.636;18.304;2022-08-01T10:06:41;6.00;;;5.80;;
12691;SDS011;6410;57.636;18.304;2022-08-01T10:09:12;6.07;;;5.88;;
12691;SDS011;6410;57.636;18.304;2022-08-01T10:11:42;6.95;;;6.40;;
12691;SDS011;6410;57.636;18.304;2022-08-01T10:14:11;6.65;;;6.28;;
12691;SDS011;6410;57.636;18.304;2022-08-01T10:16:43;6.60;;;6.30;;
12691;SDS011;6410;57.636;18.304;2022-08-01T10:19:22;5.57;;;5.35;;
12691;SDS011;6410;57.636;18.304;2022-08-01T10:21:54;5.85;;;5.55;;
12691;SDS011;6410;57.636;18.304;2022-08-01T10:24:28;6.10;;;5.80;;
12691;SDS011;6410;57.636;18.304;2022-08-01T10:27:01;5.95;;;5.75;;
12691;SDS011;6410;57.636;18.304;2022-08-01T10:29:36;6.00;;;5.72;;
12691;SDS011;6410;57.636;18.304;2022-08-01T10:32:28;5.97;;;5.70;;
12691;SDS011;6410;57.636;18.304;2022-08-01T10:34:57;6.30;;;6.00;;
12691;SDS011;6410;57.636;18.304;2022-08-01T10:37:32;5.57;;;5.38;;
12691;SDS011;6410;57.636;18.304;2022-08-01T10:40:19;7.30;;;6.60;;
12691;SDS011;6410;57.636;18.304;2022-08-01T10:42:56;6.72;;;6.20;;
12691;SDS011;6410;57.636;18.304;2022-08-01T10:45:25;6.32;;;6.13;;
12691;SDS011;6410;57.636;18.304;2022-08-01T10:47:57;6.28;;;5.97;;
12691;SDS011;6410;57.636;18.304;2022-08-01T10:50:32;6.20;;;5.90;;
12691;SDS011;6410;57.636;18.304;2022-08-01T10:53:06;5.90;;;5.70;;
12691;SDS011;6410;57.636;18.304;2022-08-01T10:55:50;6.18;;;5.95;;
12691;SDS011;6410;57.636;18.304;2022-08-01T10:58:24;6.55;;;6.20;;
12691;SDS011;6410;57.636;18.304;2022-08-01T11:01:13;6.45;;;6.05;;
12691;SDS011;6410;57.636;18.304;2022-08-01T11:03:58;6.40;;;6.20;;
12691;SDS011;6410;57.636;18.304;2022-08-01T11:06:42;6.13;;;5.93;;
12691;SDS011;6410;57.636;18.304;2022-08-01T11:09:19;6.20;;;6.00;;
12691;SDS011;6410;57.636;18.304;2022-08-01T11:12:05;6.00;;;5.80;;
12691;SDS011;6410;57.636;18.304;2022-08-01T11:17:56;6.00;;;5.65;;
12691;SDS011;6410;57.636;18.304;2022-08-01T11:20:26;6.10;;;5.90;;
12691;SDS011;6410;57.636;18.304;2022-08-01T11:26:08;6.60;;;6.40;;
12691;SDS011;6410;57.636;18.304;2022-08-01T11:28:44;6.43;;;6.22;;
12691;SDS011;6410;57.636;18.304;2022-08-01T11:31:46;6.75;;;6.45;;
12691;SDS011;6410;57.636;18.304;2022-08-01T11:34:15;6.22;;;6.03;;
12691;SDS011;6410;57.636;18.304;2022-08-01T11:36:43;6.63;;;6.43;;
12691;SDS011;6410;57.636;18.304;2022-08-01T11:39:28;6.30;;;6.10;;
12691;SDS011;6410;57.636;18.304;2022-08-01T11:42:17;6.10;;;5.82;;
12691;SDS011;6410;57.636;18.304;2022-08-01T11:44:50;6.53;;;6.18;;
12691;SDS011;6410;57.636;18.304;2022-08-01T11:53:05;6.13;;;5.93;;
12691;SDS011;6410;57.636;18.304;2022-08-01T11:55:36;6.30;;;6.10;;
12691;SDS011;6410;57.636;18.304;2022-08-01T11:58:20;6.95;;;6.65;;
12691;SDS011;6410;57.636;18.304;2022-08-01T12:00:58;6.93;;;6.45;;
12691;SDS011;6410;57.636;18.304;2022-08-01T12:03:27;6.55;;;6.25;;
12691;SDS011;6410;57.636;18.304;2022-08-01T12:05:59;6.20;;;5.90;;
12691;SDS011;6410;57.636;18.304;2022-08-01T12:08:28;6.32;;;5.95;;
12691;SDS011;6410;57.636;18.304;2022-08-01T12:10:59;5.85;;;5.55;;
12691;SDS011;6410;57.636;18.304;2022-08-01T12:13:38;6.63;;;6.22;;
12691;SDS011;6410;57.636;18.304;2022-08-01T12:16:09;6.25;;;5.95;;
12691;SDS011;6410;57.636;18.304;2022-08-01T12:18:38;5.72;;;5.32;;
12691;SDS011;6410;57.636;18.304;2022-08-01T12:21:07;5.90;;;5.70;;
12691;SDS011;6410;57.636;18.304;2022-08-01T12:23:36;6.97;;;6.57;;
12691;SDS011;6410;57.636;18.304;2022-08-01T12:26:04;7.15;;;6.65;;
12691;SDS011;6410;57.636;18.304;2022-08-01T12:28:38;6.60;;;6.25;;
12691;SDS011;6410;57.636;18.304;2022-08-01T12:31:07;7.18;;;6.65;;
12691;SDS011;6410;57.636;18.304;2022-08-01T12:33:38;7.07;;;6.60;;
12691;SDS011;6410;57.636;18.304;2022-08-01T12:36:06;8.98;;;7.10;;
12691;SDS011;6410;57.636;18.304;2022-08-01T12:38:40;7.45;;;7.05;;
12691;SDS011;6410;57.636;18.304;2022-08-01T12:41:10;6.93;;;6.63;;
12691;SDS011;6410;57.636;18.304;2022-08-01T12:43:38;7.40;;;7.10;;
12691;SDS011;6410;57.636;18.304;2022-08-01T12:46:09;8.07;;;7.68;;
12691;SDS011;6410;57.636;18.304;2022-08-01T12:48:42;8.18;;;7.75;;
12691;SDS011;6410;57.636;18.304;2022-08-01T12:51:11;7.38;;;6.97;;
12691;SDS011;6410;57.636;18.304;2022-08-01T12:53:39;8.20;;;7.82;;
12691;SDS011;6410;57.636;18.304;2022-08-01T12:56:08;26.50;;;9.60;;
12691;SDS011;6410;57.636;18.304;2022-08-01T12:58:37;7.80;;;7.50;;
12691;SDS011;6410;57.636;18.304;2022-08-01T13:01:07;7.90;;;7.55;;
12691;SDS011;6410;57.636;18.304;2022-08-01T13:03:39;7.90;;;7.40;;
12691;SDS011;6410;57.636;18.304;2022-08-01T13:06:11;8.13;;;7.65;;
12691;SDS011;6410;57.636;18.304;2022-08-01T13:08:43;8.48;;;8.07;;
12691;SDS011;6410;57.636;18.304;2022-08-01T13:11:13;9.30;;;8.73;;
12691;SDS011;6410;57.636;18.304;2022-08-01T13:13:44;9.05;;;8.43;;
12691;SDS011;6410;57.636;18.304;2022-08-01T13:16:16;8.30;;;8.00;;
12691;SDS011;6410;57.636;18.304;2022-08-01T13:19:04;8.25;;;7.90;;
12691;SDS011;6410;57.636;18.304;2022-08-01T13:21:33;9.13;;;8.73;;
12691;SDS011;6410;57.636;18.304;2022-08-01T13:24:22;8.90;;;8.45;;
12691;SDS011;6410;57.636;18.304;2022-08-01T13:26:53;8.82;;;8.52;;
12691;SDS011;6410;57.636;18.304;2022-08-01T13:29:30;8.48;;;8.15;;
12691;SDS011;6410;57.636;18.304;2022-08-01T13:32:01;8.25;;;7.95;;
12691;SDS011;6410;57.636;18.304;2022-08-01T13:35:00;8.60;;;8.30;;
12691;SDS011;6410;57.636;18.304;2022-08-01T13:37:29;8.07;;;7.78;;
12691;SDS011;6410;57.636;18.304;2022-08-01T13:39:57;8.23;;;7.93;;
12691;SDS011;6410;57.636;18.304;2022-08-01T13:42:26;8.35;;;8.05;;
12691;SDS011;6410;57.636;18.304;2022-08-01T13:44:55;8.52;;;8.18;;
12691;SDS011;6410;57.636;18.304;2022-08-01T13:47:25;8.07;;;7.78;;
12691;SDS011;6410;57.636;18.304;2022-08-01T13:49:58;8.75;;;8.43;;
12691;SDS011;6410;57.636;18.304;2022-08-01T13:52:29;8.95;;;8.45;;
12691;SDS011;6410;57.636;18.304;2022-08-01T13:55:00;9.25;;;8.35;;
12691;SDS011;6410;57.636;18.304;2022-08-01T13:57:36;9.68;;;9.27;;
12691;SDS011;6410;57.636;18.304;2022-08-01T14:00:05;9.50;;;9.00;;
12691;SDS011;6410;57.636;18.304;2022-08-01T14:02:36;9.57;;;9.13;;
12691;SDS011;6410;57.636;18.304;2022-08-01T14:05:05;9.23;;;8.82;;
12691;SDS011;6410;57.636;18.304;2022-08-01T14:07:34;8.63;;;8.32;;
12691;SDS011;6410;57.636;18.304;2022-08-01T14:10:04;8.75;;;8.45;;
12691;SDS011;6410;57.636;18.304;2022-08-01T14:12:45;9.05;;;8.65;;
12691;SDS011;6410;57.636;18.304;2022-08-01T14:15:14;8.85;;;8.45;;
12691;SDS011;6410;57.636;18.304;2022-08-01T14:18:05;8.48;;;8.18;;
12691;SDS011;6410;57.636;18.304;2022-08-01T14:20:35;8.82;;;8.32;;
12691;SDS011;6410;57.636;18.304;2022-08-01T14:23:04;8.80;;;8.50;;
12691;SDS011;6410;57.636;18.304;2022-08-01T14:25:34;9.27;;;8.88;;
12691;SDS011;6410;57.636;18.304;2022-08-01T14:28:23;8.52;;;8.23;;
12691;SDS011;6410;57.636;18.304;2022-08-01T14:30:53;9.20;;;8.90;;
12691;SDS011;6410;57.636;18.304;2022-08-01T14:33:24;9.70;;;9.30;;
12691;SDS011;6410;57.636;18.304;2022-08-01T14:35:53;9.63;;;9.32;;
12691;SDS011;6410;57.636;18.304;2022-08-01T14:38:31;9.82;;;8.95;;
12691;SDS011;6410;57.636;18.304;2022-08-01T14:40:59;9.45;;;9.05;;
12691;SDS011;6410;57.636;18.304;2022-08-01T14:43:29;9.32;;;9.00;;
12691;SDS011;6410;57.636;18.304;2022-08-01T14:45:59;9.70;;;9.30;;
12691;SDS011;6410;57.636;18.304;2022-08-01T14:48:31;9.20;;;8.80;;
12691;SDS011;6410;57.636;18.304;2022-08-01T14:50:59;8.57;;;8.27;;
12691;SDS011;6410;57.636;18.304;2022-08-01T14:53:29;9.82;;;9.13;;
12691;SDS011;6410;57.636;18.304;2022-08-01T14:56:01;9.23;;;8.73;;
12691;SDS011;6410;57.636;18.304;2022-08-01T14:58:30;8.73;;;8.40;;
12691;SDS011;6410;57.636;18.304;2022-08-01T15:00:58;9.15;;;8.85;;
12691;SDS011;6410;57.636;18.304;2022-08-01T15:03:28;9.13;;;8.48;;
12691;SDS011;6410;57.636;18.304;2022-08-01T15:05:59;9.15;;;8.75;;
12691;SDS011;6410;57.636;18.304;2022-08-01T15:08:28;9.73;;;9.35;;
12691;SDS011;6410;57.636;18.304;2022-08-01T15:10:58;9.60;;;9.30;;
12691;SDS011;6410;57.636;18.304;2022-08-01T15:13:28;8.80;;;8.50;;
12691;SDS011;6410;57.636;18.304;2022-08-01T15:15:56;8.50;;;8.20;;
12691;SDS011;6410;57.636;18.304;2022-08-01T15:18:25;8.40;;;8.10;;
12691;SDS011;6410;57.636;18.304;2022-08-01T15:20:54;9.02;;;8.45;;
12691;SDS011;6410;57.636;18.304;2022-08-01T15:23:25;8.95;;;8.55;;
12691;SDS011;6410;57.636;18.304;2022-08-01T15:25:53;8.98;;;8.48;;
12691;SDS011;6410;57.636;18.304;2022-08-01T15:28:21;8.20;;;7.90;;
12691;SDS011;6410;57.636;18.304;2022-08-01T15:30:50;8.68;;;8.38;;
12691;SDS011;6410;57.636;18.304;2022-08-01T15:33:18;8.65;;;8.13;;
12691;SDS011;6410;57.636;18.304;2022-08-01T15:35:47;9.10;;;8.63;;
12691;SDS011;6410;57.636;18.304;2022-08-01T15:38:18;8.68;;;8.23;;